sensor_id;sensor_type;location;lat;lon;timestamp;temperature;humidity
5415;DHT22;2730;51.512;7.504;2023-08-31T00:02:24;12.90;99.90
5415;DHT22;2730;51.512;7.504;2023-08-31T00:04:51;12.90;99.90
5415;DHT22;2730;51.512;7.504;2023-08-31T00:07:19;13.00;99.90
5415;DHT22;2730;51.512;7.504;2023-08-31T00:09:45;12.90;99.90
5415;DHT22;2730;51.512;7.504;2023-08-31T00:12:13;13.00;99.90
5415;DHT22;2730;51.512;7.504;2023-08-31T00:14:40;12.90;99.90
5415;DHT22;2730;51.512;7.504;2023-08-31T00:17:06;12.90;99.90
5415;DHT22;2730;51.512;7.504;2023-08-31T00:19:34;12.90;99.90
5415;DHT22;2730;51.512;7.504;2023-08-31T00:22:01;13.00;99.90
5415;DHT22;2730;51.512;7.504;2023-08-31T00:24:29;12.90;99.90
5415;DHT22;2730;51.512;7.504;2023-08-31T00:26:58;13.00;99.90
5415;DHT22;2730;51.512;7.504;2023-08-31T00:29:25;13.00;99.90
5415;DHT22;2730;51.512;7.504;2023-08-31T00:31:52;13.00;99.90
5415;DHT22;2730;51.512;7.504;2023-08-31T00:34:19;13.00;99.90
5415;DHT22;2730;51.512;7.504;2023-08-31T00:36:47;13.10;99.90
5415;DHT22;2730;51.512;7.504;2023-08-31T00:39:14;13.10;99.90
5415;DHT22;2730;51.512;7.504;2023-08-31T00:41:43;13.10;99.90
5415;DHT22;2730;51.512;7.504;2023-08-31T00:44:11;13.00;99.90
5415;DHT22;2730;51.512;7.504;2023-08-31T00:46:38;13.00;99.90
5415;DHT22;2730;51.512;7.504;2023-08-31T00:49:04;13.00;99.90
5415;DHT22;2730;51.512;7.504;2023-08-31T00:51:31;12.90;99.90
5415;DHT22;2730;51.512;7.504;2023-08-31T00:54:00;13.00;99.90
5415;DHT22;2730;51.512;7.504;2023-08-31T00:56:27;12.90;99.90
5415;DHT22;2730;51.512;7.504;2023-08-31T00:58:54;12.90;99.90
5415;DHT22;2730;51.512;7.504;2023-08-31T01:01:26;12.90;99.90
5415;DHT22;2730;51.512;7.504;2023-08-31T01:04:00;12.90;99.90
5415;DHT22;2730;51.512;7.504;2023-08-31T01:06:36;12.90;99.90
5415;DHT22;2730;51.512;7.504;2023-08-31T01:09:13;13.00;99.90
5415;DHT22;2730;51.512;7.504;2023-08-31T01:11:49;13.00;99.90
5415;DHT22;2730;51.512;7.504;2023-08-31T01:14:18;13.00;99.90
5415;DHT22;2730;51.512;7.504;2023-08-31T01:16:48;13.00;99.90
5415;DHT22;2730;51.512;7.504;2023-08-31T01:19:29;13.00;99.90
5415;DHT22;2730;51.512;7.504;2023-08-31T01:21:59;12.90;99.90
5415;DHT22;2730;51.512;7.504;2023-08-31T01:24:29;12.80;99.90
5415;DHT22;2730;51.512;7.504;2023-08-31T01:26:56;12.70;99.90
5415;DHT22;2730;51.512;7.504;2023-08-31T01:29:23;12.70;99.90
5415;DHT22;2730;51.512;7.504;2023-08-31T01:31:51;12.50;99.90
5415;DHT22;2730;51.512;7.504;2023-08-31T01:34:18;12.40;99.90
5415;DHT22;2730;51.512;7.504;2023-08-31T01:36:50;12.40;99.90
5415;DHT22;2730;51.512;7.504;2023-08-31T01:39:21;12.30;99.90
5415;DHT22;2730;51.512;7.504;2023-08-31T01:41:56;12.20;99.90
5415;DHT22;2730;51.512;7.504;2023-08-31T01:44:23;12.20;99.90
5415;DHT22;2730;51.512;7.504;2023-08-31T01:46:52;12.10;99.90
5415;DHT22;2730;51.512;7.504;2023-08-31T01:49:19;12.10;99.90
5415;DHT22;2730;51.512;7.504;2023-08-31T01:51:46;12.00;99.90
5415;DHT22;2730;51.512;7.504;2023-08-31T01:54:13;12.00;99.90
5415;DHT22;2730;51.512;7.504;2023-08-31T01:56:40;12.00;99.90
5415;DHT22;2730;51.512;7.504;2023-08-31T01:59:08;11.90;99.90
5415;DHT22;2730;51.512;7.504;2023-08-31T02:01:34;11.90;99.90
5415;DHT22;2730;51.512;7.504;2023-08-31T02:04:01;11.90;99.90
5415;DHT22;2730;51.512;7.504;2023-08-31T02:06:28;11.80;99.90
5415;DHT22;2730;51.512;7.504;2023-08-31T02:08:55;11.70;99.90
5415;DHT22;2730;51.512;7.504;2023-08-31T02:11:21;11.70;99.90
5415;DHT22;2730;51.512;7.504;2023-08-31T02:13:48;11.70;99.90
5415;DHT22;2730;51.512;7.504;2023-08-31T02:16:16;11.60;99.90
5415;DHT22;2730;51.512;7.504;2023-08-31T02:18:43;11.60;99.90
5415;DHT22;2730;51.512;7.504;2023-08-31T02:21:10;11.60;99.90
5415;DHT22;2730;51.512;7.504;2023-08-31T02:23:37;11.60;99.90
5415;DHT22;2730;51.512;7.504;2023-08-31T02:26:03;11.50;99.90
5415;DHT22;2730;51.512;7.504;2023-08-31T02:28:30;11.50;99.90
5415;DHT22;2730;51.512;7.504;2023-08-31T02:30:58;11.50;99.90
5415;DHT22;2730;51.512;7.504;2023-08-31T02:33:26;11.50;99.90
5415;DHT22;2730;51.512;7.504;2023-08-31T02:35:54;11.50;99.90
5415;DHT22;2730;51.512;7.504;2023-08-31T02:38:21;11.50;99.90
5415;DHT22;2730;51.512;7.504;2023-08-31T02:40:48;11.50;99.90
5415;DHT22;2730;51.512;7.504;2023-08-31T02:43:15;11.40;99.90
5415;DHT22;2730;51.512;7.504;2023-08-31T02:45:41;11.40;99.90
5415;DHT22;2730;51.512;7.504;2023-08-31T02:48:08;11.30;99.90
5415;DHT22;2730;51.512;7.504;2023-08-31T02:50:37;11.40;99.90
5415;DHT22;2730;51.512;7.504;2023-08-31T02:53:04;11.40;99.90
5415;DHT22;2730;51.512;7.504;2023-08-31T02:55:32;11.30;99.90
5415;DHT22;2730;51.512;7.504;2023-08-31T02:57:59;11.40;99.90
5415;DHT22;2730;51.512;7.504;2023-08-31T03:00:26;11.40;99.90
5415;DHT22;2730;51.512;7.504;2023-08-31T03:02:53;11.40;99.90
5415;DHT22;2730;51.512;7.504;2023-08-31T03:05:20;11.40;99.90
5415;DHT22;2730;51.512;7.504;2023-08-31T03:07:48;11.40;99.90
5415;DHT22;2730;51.512;7.504;2023-08-31T03:10:15;11.30;99.90
5415;DHT22;2730;51.512;7.504;2023-08-31T03:12:42;11.30;99.90
5415;DHT22;2730;51.512;7.504;2023-08-31T03:15:09;11.30;99.90
5415;DHT22;2730;51.512;7.504;2023-08-31T03:17:36;11.20;99.90
5415;DHT22;2730;51.512;7.504;2023-08-31T03:20:03;11.20;99.90
5415;DHT22;2730;51.512;7.504;2023-08-31T03:22:31;11.20;99.90
5415;DHT22;2730;51.512;7.504;2023-08-31T03:24:59;11.10;99.90
5415;DHT22;2730;51.512;7.504;2023-08-31T03:27:26;11.10;99.90
5415;DHT22;2730;51.512;7.504;2023-08-31T03:29:53;11.10;99.90
5415;DHT22;2730;51.512;7.504;2023-08-31T03:32:20;11.10;99.90
5415;DHT22;2730;51.512;7.504;2023-08-31T03:34:47;11.10;99.90
5415;DHT22;2730;51.512;7.504;2023-08-31T03:37:13;11.20;99.90
5415;DHT22;2730;51.512;7.504;2023-08-31T03:39:40;11.10;99.90
5415;DHT22;2730;51.512;7.504;2023-08-31T03:42:09;11.10;99.90
5415;DHT22;2730;51.512;7.504;2023-08-31T03:44:36;11.10;99.90
5415;DHT22;2730;51.512;7.504;2023-08-31T03:47:04;11.10;99.90
5415;DHT22;2730;51.512;7.504;2023-08-31T03:49:30;11.10;99.90
5415;DHT22;2730;51.512;7.504;2023-08-31T03:51:58;11.10;99.90
5415;DHT22;2730;51.512;7.504;2023-08-31T03:54:25;11.00;99.90
5415;DHT22;2730;51.512;7.504;2023-08-31T03:56:52;11.10;99.90
5415;DHT22;2730;51.512;7.504;2023-08-31T03:59:20;11.20;99.90
5415;DHT22;2730;51.512;7.504;2023-08-31T04:01:47;11.20;99.90
5415;DHT22;2730;51.512;7.504;2023-08-31T04:04:14;11.30;99.90
5415;DHT22;2730;51.512;7.504;2023-08-31T04:06:40;11.20;99.90
5415;DHT22;2730;51.512;7.504;2023-08-31T04:09:07;11.10;99.90
5415;DHT22;2730;51.512;7.504;2023-08-31T04:11:34;11.10;99.90
5415;DHT22;2730;51.512;7.504;2023-08-31T04:14:01;11.10;99.90
5415;DHT22;2730;51.512;7.504;2023-08-31T04:16:29;11.10;99.90
5415;DHT22;2730;51.512;7.504;2023-08-31T04:18:55;11.10;99.90
5415;DHT22;2730;51.512;7.504;2023-08-31T04:21:22;11.20;99.90
5415;DHT22;2730;51.512;7.504;2023-08-31T04:23:49;11.10;99.90
5415;DHT22;2730;51.512;7.504;2023-08-31T04:26:16;11.10;99.90
5415;DHT22;2730;51.512;7.504;2023-08-31T04:28:44;11.00;99.90
5415;DHT22;2730;51.512;7.504;2023-08-31T04:31:10;11.10;99.90
5415;DHT22;2730;51.512;7.504;2023-08-31T04:33:39;11.20;99.90
5415;DHT22;2730;51.512;7.504;2023-08-31T04:36:06;11.20;99.90
5415;DHT22;2730;51.512;7.504;2023-08-31T04:38:34;11.20;99.90
5415;DHT22;2730;51.512;7.504;2023-08-31T04:41:01;11.20;99.90
5415;DHT22;2730;51.512;7.504;2023-08-31T04:43:29;11.20;99.90
5415;DHT22;2730;51.512;7.504;2023-08-31T04:45:56;11.20;99.90
5415;DHT22;2730;51.512;7.504;2023-08-31T04:48:22;11.20;99.90
5415;DHT22;2730;51.512;7.504;2023-08-31T04:50:55;11.20;99.90
5415;DHT22;2730;51.512;7.504;2023-08-31T04:53:22;11.20;99.90
5415;DHT22;2730;51.512;7.504;2023-08-31T04:55:49;11.10;99.90
5415;DHT22;2730;51.512;7.504;2023-08-31T04:58:15;11.10;99.90
5415;DHT22;2730;51.512;7.504;2023-08-31T05:00:42;11.10;99.90
5415;DHT22;2730;51.512;7.504;2023-08-31T05:03:10;11.20;99.90
5415;DHT22;2730;51.512;7.504;2023-08-31T05:05:37;11.20;99.90
5415;DHT22;2730;51.512;7.504;2023-08-31T05:08:07;11.20;99.90
5415;DHT22;2730;51.512;7.504;2023-08-31T05:10:34;11.20;99.90
5415;DHT22;2730;51.512;7.504;2023-08-31T05:13:01;11.20;99.90
5415;DHT22;2730;51.512;7.504;2023-08-31T05:15:29;11.20;99.90
5415;DHT22;2730;51.512;7.504;2023-08-31T05:17:56;11.30;99.90
5415;DHT22;2730;51.512;7.504;2023-08-31T05:20:23;11.30;99.90
5415;DHT22;2730;51.512;7.504;2023-08-31T05:22:50;11.30;99.90
5415;DHT22;2730;51.512;7.504;2023-08-31T05:25:18;11.30;99.90
5415;DHT22;2730;51.512;7.504;2023-08-31T05:27:45;11.30;99.90
5415;DHT22;2730;51.512;7.504;2023-08-31T05:30:12;11.30;99.90
5415;DHT22;2730;51.512;7.504;2023-08-31T05:32:38;11.30;99.90
5415;DHT22;2730;51.512;7.504;2023-08-31T05:35:06;11.40;99.90
5415;DHT22;2730;51.512;7.504;2023-08-31T05:37:33;11.40;99.90
5415;DHT22;2730;51.512;7.504;2023-08-31T05:40:01;11.40;99.90
5415;DHT22;2730;51.512;7.504;2023-08-31T05:42:32;11.50;99.90
5415;DHT22;2730;51.512;7.504;2023-08-31T05:44:59;11.50;99.90
5415;DHT22;2730;51.512;7.504;2023-08-31T05:47:26;11.50;99.90
5415;DHT22;2730;51.512;7.504;2023-08-31T05:49:53;11.60;99.90
5415;DHT22;2730;51.512;7.504;2023-08-31T05:52:19;11.70;99.90
5415;DHT22;2730;51.512;7.504;2023-08-31T05:54:46;11.70;99.90
5415;DHT22;2730;51.512;7.504;2023-08-31T05:57:13;11.80;99.90
5415;DHT22;2730;51.512;7.504;2023-08-31T05:59:41;11.90;99.90
5415;DHT22;2730;51.512;7.504;2023-08-31T06:02:08;12.00;99.90
5415;DHT22;2730;51.512;7.504;2023-08-31T06:04:35;12.00;99.90
5415;DHT22;2730;51.512;7.504;2023-08-31T06:07:01;12.00;99.90
5415;DHT22;2730;51.512;7.504;2023-08-31T06:09:28;12.10;99.90
5415;DHT22;2730;51.512;7.504;2023-08-31T06:11:55;12.20;99.90
5415;DHT22;2730;51.512;7.504;2023-08-31T06:14:22;12.30;99.90
5415;DHT22;2730;51.512;7.504;2023-08-31T06:16:50;12.40;99.90
5415;DHT22;2730;51.512;7.504;2023-08-31T06:19:18;12.50;99.90
5415;DHT22;2730;51.512;7.504;2023-08-31T06:21:45;12.60;99.90
5415;DHT22;2730;51.512;7.504;2023-08-31T06:24:11;12.60;99.90
5415;DHT22;2730;51.512;7.504;2023-08-31T06:26:38;12.70;99.90
5415;DHT22;2730;51.512;7.504;2023-08-31T06:29:05;12.70;99.90
5415;DHT22;2730;51.512;7.504;2023-08-31T06:31:33;12.80;99.90
5415;DHT22;2730;51.512;7.504;2023-08-31T06:34:01;12.90;99.90
5415;DHT22;2730;51.512;7.504;2023-08-31T06:36:29;13.10;99.90
5415;DHT22;2730;51.512;7.504;2023-08-31T06:38:56;13.20;99.90
5415;DHT22;2730;51.512;7.504;2023-08-31T06:41:23;13.50;99.90
5415;DHT22;2730;51.512;7.504;2023-08-31T06:43:50;13.90;99.90
5415;DHT22;2730;51.512;7.504;2023-08-31T06:46:16;14.30;99.90
5415;DHT22;2730;51.512;7.504;2023-08-31T06:48:43;14.60;99.90
5415;DHT22;2730;51.512;7.504;2023-08-31T06:51:11;14.80;99.90
5415;DHT22;2730;51.512;7.504;2023-08-31T06:53:38;15.00;99.90
5415;DHT22;2730;51.512;7.504;2023-08-31T06:56:05;15.40;99.90
5415;DHT22;2730;51.512;7.504;2023-08-31T06:58:32;16.10;19.10
5415;DHT22;2730;51.512;7.504;2023-08-31T07:00:59;16.50;5.20
5415;DHT22;2730;51.512;7.504;2023-08-31T07:03:26;17.70;1.00
5415;DHT22;2730;51.512;7.504;2023-08-31T07:05:53;18.50;94.70
5415;DHT22;2730;51.512;7.504;2023-08-31T07:08:21;18.70;99.90
5415;DHT22;2730;51.512;7.504;2023-08-31T07:10:49;19.40;40.30
5415;DHT22;2730;51.512;7.504;2023-08-31T07:13:16;20.20;47.90
5415;DHT22;2730;51.512;7.504;2023-08-31T07:15:43;20.10;99.90
5415;DHT22;2730;51.512;7.504;2023-08-31T07:18:10;20.80;1.00
5415;DHT22;2730;51.512;7.504;2023-08-31T07:20:36;21.10;99.90
5415;DHT22;2730;51.512;7.504;2023-08-31T07:23:03;20.60;1.00
5415;DHT22;2730;51.512;7.504;2023-08-31T07:25:31;21.30;99.90
5415;DHT22;2730;51.512;7.504;2023-08-31T07:27:58;21.70;99.90
5415;DHT22;2730;51.512;7.504;2023-08-31T07:30:25;22.40;99.90
5415;DHT22;2730;51.512;7.504;2023-08-31T07:32:52;23.20;1.00
5415;DHT22;2730;51.512;7.504;2023-08-31T07:35:18;23.40;1.00
5415;DHT22;2730;51.512;7.504;2023-08-31T07:37:45;23.40;1.00
5415;DHT22;2730;51.512;7.504;2023-08-31T07:40:12;23.20;1.00
5415;DHT22;2730;51.512;7.504;2023-08-31T07:42:40;23.60;1.00
5415;DHT22;2730;51.512;7.504;2023-08-31T07:45:08;23.50;1.00
5415;DHT22;2730;51.512;7.504;2023-08-31T07:47:34;23.40;1.00
5415;DHT22;2730;51.512;7.504;2023-08-31T07:50:01;23.90;99.90
5415;DHT22;2730;51.512;7.504;2023-08-31T07:52:28;23.90;99.90
5415;DHT22;2730;51.512;7.504;2023-08-31T07:54:55;23.50;1.00
5415;DHT22;2730;51.512;7.504;2023-08-31T07:57:22;23.50;1.00
5415;DHT22;2730;51.512;7.504;2023-08-31T07:59:51;23.90;99.90
5415;DHT22;2730;51.512;7.504;2023-08-31T08:02:19;24.40;99.90
5415;DHT22;2730;51.512;7.504;2023-08-31T08:04:45;24.80;99.90
5415;DHT22;2730;51.512;7.504;2023-08-31T08:07:12;24.40;99.90
5415;DHT22;2730;51.512;7.504;2023-08-31T08:09:39;23.20;99.90
5415;DHT22;2730;51.512;7.504;2023-08-31T08:12:06;21.40;1.00
5415;DHT22;2730;51.512;7.504;2023-08-31T08:14:33;20.00;99.90
5415;DHT22;2730;51.512;7.504;2023-08-31T08:17:02;19.10;1.00
5415;DHT22;2730;51.512;7.504;2023-08-31T08:19:28;18.80;94.40
5415;DHT22;2730;51.512;7.504;2023-08-31T08:21:55;19.70;1.00
5415;DHT22;2730;51.512;7.504;2023-08-31T08:24:22;20.70;99.90
5415;DHT22;2730;51.512;7.504;2023-08-31T08:26:49;20.90;60.00
5415;DHT22;2730;51.512;7.504;2023-08-31T08:29:15;21.10;39.10
5415;DHT22;2730;51.512;7.504;2023-08-31T08:31:42;21.20;29.80
5415;DHT22;2730;51.512;7.504;2023-08-31T08:34:10;21.90;1.00
5415;DHT22;2730;51.512;7.504;2023-08-31T08:36:37;22.70;1.00
5415;DHT22;2730;51.512;7.504;2023-08-31T08:39:04;23.80;99.90
5415;DHT22;2730;51.512;7.504;2023-08-31T08:41:32;24.90;99.90
5415;DHT22;2730;51.512;7.504;2023-08-31T08:44:02;25.60;99.90
5415;DHT22;2730;51.512;7.504;2023-08-31T08:46:31;25.70;99.90
5415;DHT22;2730;51.512;7.504;2023-08-31T08:48:59;26.00;99.90
5415;DHT22;2730;51.512;7.504;2023-08-31T08:51:29;26.20;88.90
5415;DHT22;2730;51.512;7.504;2023-08-31T08:53:59;26.60;89.20
5415;DHT22;2730;51.512;7.504;2023-08-31T08:56:26;27.30;21.20
5415;DHT22;2730;51.512;7.504;2023-08-31T08:58:53;26.40;8.40
5415;DHT22;2730;51.512;7.504;2023-08-31T09:01:20;25.80;22.20
5415;DHT22;2730;51.512;7.504;2023-08-31T09:03:48;25.50;76.50
5415;DHT22;2730;51.512;7.504;2023-08-31T09:06:15;25.10;90.20
5415;DHT22;2730;51.512;7.504;2023-08-31T09:08:43;24.80;70.50
5415;DHT22;2730;51.512;7.504;2023-08-31T09:11:19;23.80;99.90
5415;DHT22;2730;51.512;7.504;2023-08-31T09:13:48;23.40;99.90
5415;DHT22;2730;51.512;7.504;2023-08-31T09:16:24;22.80;99.90
5415;DHT22;2730;51.512;7.504;2023-08-31T09:18:51;23.40;99.90
5415;DHT22;2730;51.512;7.504;2023-08-31T09:21:18;24.10;99.90
5415;DHT22;2730;51.512;7.504;2023-08-31T09:23:55;24.80;99.90
5415;DHT22;2730;51.512;7.504;2023-08-31T09:26:22;25.30;99.90
5415;DHT22;2730;51.512;7.504;2023-08-31T09:28:49;24.50;99.90
5415;DHT22;2730;51.512;7.504;2023-08-31T09:31:16;23.90;99.90
5415;DHT22;2730;51.512;7.504;2023-08-31T09:33:49;22.70;99.90
5415;DHT22;2730;51.512;7.504;2023-08-31T09:36:17;21.40;1.00
5415;DHT22;2730;51.512;7.504;2023-08-31T09:38:44;20.70;99.90
5415;DHT22;2730;51.512;7.504;2023-08-31T09:41:13;22.00;1.00
5415;DHT22;2730;51.512;7.504;2023-08-31T09:43:41;22.70;1.00
5415;DHT22;2730;51.512;7.504;2023-08-31T09:46:08;23.90;99.90
5415;DHT22;2730;51.512;7.504;2023-08-31T09:48:37;23.60;99.90
5415;DHT22;2730;51.512;7.504;2023-08-31T09:51:05;22.90;99.90
5415;DHT22;2730;51.512;7.504;2023-08-31T09:53:36;22.00;1.00
5415;DHT22;2730;51.512;7.504;2023-08-31T09:56:04;22.50;99.90
5415;DHT22;2730;51.512;7.504;2023-08-31T09:58:33;23.40;99.90
5415;DHT22;2730;51.512;7.504;2023-08-31T10:01:01;23.90;99.90
5415;DHT22;2730;51.512;7.504;2023-08-31T10:03:28;25.00;99.90
5415;DHT22;2730;51.512;7.504;2023-08-31T10:05:55;25.40;65.00
5415;DHT22;2730;51.512;7.504;2023-08-31T10:08:22;25.30;56.90
5415;DHT22;2730;51.512;7.504;2023-08-31T10:10:50;24.50;59.00
5415;DHT22;2730;51.512;7.504;2023-08-31T10:13:19;22.90;99.90
5415;DHT22;2730;51.512;7.504;2023-08-31T10:15:49;22.00;99.90
5415;DHT22;2730;51.512;7.504;2023-08-31T10:18:16;21.30;99.90
5415;DHT22;2730;51.512;7.504;2023-08-31T10:20:44;21.50;99.90
5415;DHT22;2730;51.512;7.504;2023-08-31T10:23:11;21.30;99.90
5415;DHT22;2730;51.512;7.504;2023-08-31T10:26:01;21.40;99.90
5415;DHT22;2730;51.512;7.504;2023-08-31T10:28:29;22.30;99.90
5415;DHT22;2730;51.512;7.504;2023-08-31T10:31:04;22.90;99.90
5415;DHT22;2730;51.512;7.504;2023-08-31T10:33:32;22.90;99.90
5415;DHT22;2730;51.512;7.504;2023-08-31T10:35:59;22.90;99.90
5415;DHT22;2730;51.512;7.504;2023-08-31T10:38:27;23.80;98.10
5415;DHT22;2730;51.512;7.504;2023-08-31T10:43:46;23.80;49.10
5415;DHT22;2730;51.512;7.504;2023-08-31T10:46:34;24.30;46.50
5415;DHT22;2730;51.512;7.504;2023-08-31T10:49:02;25.20;15.00
5415;DHT22;2730;51.512;7.504;2023-08-31T10:51:40;25.80;1.00
5415;DHT22;2730;51.512;7.504;2023-08-31T10:54:09;25.00;1.00
5415;DHT22;2730;51.512;7.504;2023-08-31T10:57:02;24.50;1.00
5415;DHT22;2730;51.512;7.504;2023-08-31T10:59:46;24.60;1.00
5415;DHT22;2730;51.512;7.504;2023-08-31T11:02:32;24.20;1.00
5415;DHT22;2730;51.512;7.504;2023-08-31T11:05:01;23.80;1.00
5415;DHT22;2730;51.512;7.504;2023-08-31T11:07:29;23.40;1.00
5415;DHT22;2730;51.512;7.504;2023-08-31T11:10:08;22.90;1.00
5415;DHT22;2730;51.512;7.504;2023-08-31T11:12:35;22.40;61.90
5415;DHT22;2730;51.512;7.504;2023-08-31T11:15:02;21.80;99.90
5415;DHT22;2730;51.512;7.504;2023-08-31T11:17:31;21.60;99.90
5415;DHT22;2730;51.512;7.504;2023-08-31T11:19:58;21.80;99.90
5415;DHT22;2730;51.512;7.504;2023-08-31T11:22:25;22.10;99.90
5415;DHT22;2730;51.512;7.504;2023-08-31T11:24:52;22.00;99.90
5415;DHT22;2730;51.512;7.504;2023-08-31T11:27:19;21.90;99.90
5415;DHT22;2730;51.512;7.504;2023-08-31T11:29:47;21.70;99.90
5415;DHT22;2730;51.512;7.504;2023-08-31T11:32:14;21.70;99.90
5415;DHT22;2730;51.512;7.504;2023-08-31T11:34:44;21.90;99.90
5415;DHT22;2730;51.512;7.504;2023-08-31T11:37:12;21.90;99.90
5415;DHT22;2730;51.512;7.504;2023-08-31T11:39:41;22.00;99.90
5415;DHT22;2730;51.512;7.504;2023-08-31T11:42:08;21.90;99.90
5415;DHT22;2730;51.512;7.504;2023-08-31T11:44:35;21.90;99.90
5415;DHT22;2730;51.512;7.504;2023-08-31T11:47:02;21.70;66.50
5415;DHT22;2730;51.512;7.504;2023-08-31T11:49:30;21.40;99.10
5415;DHT22;2730;51.512;7.504;2023-08-31T11:51:58;21.40;99.90
5415;DHT22;2730;51.512;7.504;2023-08-31T11:54:25;21.20;99.90
5415;DHT22;2730;51.512;7.504;2023-08-31T11:56:52;21.20;99.90
5415;DHT22;2730;51.512;7.504;2023-08-31T11:59:19;21.20;99.90
5415;DHT22;2730;51.512;7.504;2023-08-31T12:01:47;21.10;99.90
5415;DHT22;2730;51.512;7.504;2023-08-31T12:04:16;20.90;99.90
5415;DHT22;2730;51.512;7.504;2023-08-31T12:06:46;20.90;99.90
5415;DHT22;2730;51.512;7.504;2023-08-31T12:09:15;21.10;99.90
5415;DHT22;2730;51.512;7.504;2023-08-31T12:11:42;21.00;99.90
5415;DHT22;2730;51.512;7.504;2023-08-31T12:14:20;20.70;99.90
5415;DHT22;2730;51.512;7.504;2023-08-31T12:16:46;20.70;1.00
5415;DHT22;2730;51.512;7.504;2023-08-31T12:19:13;20.80;1.00
5415;DHT22;2730;51.512;7.504;2023-08-31T12:21:42;21.10;99.90
5415;DHT22;2730;51.512;7.504;2023-08-31T12:24:09;21.20;99.90
5415;DHT22;2730;51.512;7.504;2023-08-31T12:26:38;21.00;99.90
5415;DHT22;2730;51.512;7.504;2023-08-31T12:29:05;21.10;1.00
5415;DHT22;2730;51.512;7.504;2023-08-31T12:31:32;21.00;99.90
5415;DHT22;2730;51.512;7.504;2023-08-31T12:33:59;21.00;99.90
5415;DHT22;2730;51.512;7.504;2023-08-31T12:36:30;21.00;99.90
5415;DHT22;2730;51.512;7.504;2023-08-31T12:38:56;21.00;99.90
5415;DHT22;2730;51.512;7.504;2023-08-31T12:41:26;20.90;99.90
5415;DHT22;2730;51.512;7.504;2023-08-31T12:43:54;20.90;99.90
5415;DHT22;2730;51.512;7.504;2023-08-31T12:46:21;20.90;99.90
5415;DHT22;2730;51.512;7.504;2023-08-31T12:48:48;20.90;99.90
5415;DHT22;2730;51.512;7.504;2023-08-31T12:51:15;20.80;99.90
5415;DHT22;2730;51.512;7.504;2023-08-31T12:53:42;20.80;99.90
5415;DHT22;2730;51.512;7.504;2023-08-31T12:56:09;20.60;99.90
5415;DHT22;2730;51.512;7.504;2023-08-31T12:58:37;20.60;1.00
5415;DHT22;2730;51.512;7.504;2023-08-31T13:01:05;20.90;1.00
5415;DHT22;2730;51.512;7.504;2023-08-31T13:03:33;21.10;99.90
5415;DHT22;2730;51.512;7.504;2023-08-31T13:06:00;21.00;1.00
5415;DHT22;2730;51.512;7.504;2023-08-31T13:08:27;20.90;99.90
5415;DHT22;2730;51.512;7.504;2023-08-31T13:10:54;20.90;1.00
5415;DHT22;2730;51.512;7.504;2023-08-31T13:13:22;21.00;1.00
5415;DHT22;2730;51.512;7.504;2023-08-31T13:15:49;21.00;1.00
5415;DHT22;2730;51.512;7.504;2023-08-31T13:18:17;20.80;1.00
5415;DHT22;2730;51.512;7.504;2023-08-31T13:20:49;20.70;1.00
5415;DHT22;2730;51.512;7.504;2023-08-31T13:23:16;20.80;99.90
5415;DHT22;2730;51.512;7.504;2023-08-31T13:25:43;20.70;99.90
5415;DHT22;2730;51.512;7.504;2023-08-31T13:28:10;20.50;1.00
5415;DHT22;2730;51.512;7.504;2023-08-31T13:30:37;20.30;1.00
5415;DHT22;2730;51.512;7.504;2023-08-31T13:33:04;20.30;1.00
5415;DHT22;2730;51.512;7.504;2023-08-31T13:35:32;20.30;1.00
5415;DHT22;2730;51.512;7.504;2023-08-31T13:38:00;20.40;1.00
5415;DHT22;2730;51.512;7.504;2023-08-31T13:40:27;20.30;1.00
5415;DHT22;2730;51.512;7.504;2023-08-31T13:42:55;20.30;1.00
5415;DHT22;2730;51.512;7.504;2023-08-31T13:45:25;20.50;1.00
5415;DHT22;2730;51.512;7.504;2023-08-31T13:47:52;20.80;1.00
5415;DHT22;2730;51.512;7.504;2023-08-31T13:50:19;20.90;99.90
5415;DHT22;2730;51.512;7.504;2023-08-31T13:52:47;21.00;1.00
5415;DHT22;2730;51.512;7.504;2023-08-31T13:55:14;20.90;1.00
5415;DHT22;2730;51.512;7.504;2023-08-31T13:57:41;20.90;99.90
5415;DHT22;2730;51.512;7.504;2023-08-31T14:00:09;20.90;1.00
5415;DHT22;2730;51.512;7.504;2023-08-31T14:02:37;21.00;99.90
5415;DHT22;2730;51.512;7.504;2023-08-31T14:05:04;20.70;99.90
5415;DHT22;2730;51.512;7.504;2023-08-31T14:07:32;20.50;1.00
5415;DHT22;2730;51.512;7.504;2023-08-31T14:10:00;20.50;1.00
5415;DHT22;2730;51.512;7.504;2023-08-31T14:12:27;20.40;1.00
5415;DHT22;2730;51.512;7.504;2023-08-31T14:14:53;20.50;1.00
5415;DHT22;2730;51.512;7.504;2023-08-31T14:17:20;20.50;1.00
5415;DHT22;2730;51.512;7.504;2023-08-31T14:19:47;20.60;1.00
5415;DHT22;2730;51.512;7.504;2023-08-31T14:22:14;20.80;1.00
5415;DHT22;2730;51.512;7.504;2023-08-31T14:24:42;21.10;1.00
5415;DHT22;2730;51.512;7.504;2023-08-31T14:27:10;21.30;1.00
5415;DHT22;2730;51.512;7.504;2023-08-31T14:29:37;21.50;99.90
5415;DHT22;2730;51.512;7.504;2023-08-31T14:32:04;21.60;99.90
5415;DHT22;2730;51.512;7.504;2023-08-31T14:34:31;21.40;99.90
5415;DHT22;2730;51.512;7.504;2023-08-31T14:36:58;21.30;99.90
5415;DHT22;2730;51.512;7.504;2023-08-31T14:39:26;21.30;99.90
5415;DHT22;2730;51.512;7.504;2023-08-31T14:41:55;20.70;1.00
5415;DHT22;2730;51.512;7.504;2023-08-31T14:44:24;20.50;1.00
5415;DHT22;2730;51.512;7.504;2023-08-31T14:46:51;20.20;1.00
5415;DHT22;2730;51.512;7.504;2023-08-31T14:49:22;20.10;5.30
5415;DHT22;2730;51.512;7.504;2023-08-31T14:51:50;19.90;97.40
5415;DHT22;2730;51.512;7.504;2023-08-31T14:54:17;19.60;99.90
5415;DHT22;2730;51.512;7.504;2023-08-31T14:56:43;19.30;99.90
5415;DHT22;2730;51.512;7.504;2023-08-31T14:59:10;18.80;99.90
5415;DHT22;2730;51.512;7.504;2023-08-31T15:01:38;18.50;99.90
5415;DHT22;2730;51.512;7.504;2023-08-31T15:04:05;18.00;1.00
5415;DHT22;2730;51.512;7.504;2023-08-31T15:06:32;17.00;1.00
5415;DHT22;2730;51.512;7.504;2023-08-31T15:08:59;16.70;25.40
5415;DHT22;2730;51.512;7.504;2023-08-31T15:11:26;16.10;99.90
5415;DHT22;2730;51.512;7.504;2023-08-31T15:13:53;15.60;99.90
5415;DHT22;2730;51.512;7.504;2023-08-31T15:16:20;15.40;99.90
5415;DHT22;2730;51.512;7.504;2023-08-31T15:18:48;15.20;99.90
5415;DHT22;2730;51.512;7.504;2023-08-31T15:21:15;15.00;99.90
5415;DHT22;2730;51.512;7.504;2023-08-31T15:23:43;15.00;99.90
5415;DHT22;2730;51.512;7.504;2023-08-31T15:26:10;15.00;99.90
5415;DHT22;2730;51.512;7.504;2023-08-31T15:28:38;15.00;99.90
5415;DHT22;2730;51.512;7.504;2023-08-31T15:31:05;15.00;99.90
5415;DHT22;2730;51.512;7.504;2023-08-31T15:33:32;15.00;99.90
5415;DHT22;2730;51.512;7.504;2023-08-31T15:36:05;15.00;99.90
5415;DHT22;2730;51.512;7.504;2023-08-31T15:38:32;15.10;99.90
5415;DHT22;2730;51.512;7.504;2023-08-31T15:41:00;15.20;99.90
5415;DHT22;2730;51.512;7.504;2023-08-31T15:43:29;15.30;99.90
5415;DHT22;2730;51.512;7.504;2023-08-31T15:45:56;15.40;99.90
5415;DHT22;2730;51.512;7.504;2023-08-31T15:48:23;15.40;99.90
5415;DHT22;2730;51.512;7.504;2023-08-31T15:50:51;15.50;99.90
5415;DHT22;2730;51.512;7.504;2023-08-31T15:53:19;15.50;99.90
5415;DHT22;2730;51.512;7.504;2023-08-31T15:55:47;15.60;99.90
5415;DHT22;2730;51.512;7.504;2023-08-31T15:58:14;15.70;99.90
5415;DHT22;2730;51.512;7.504;2023-08-31T16:00:41;15.80;99.90
5415;DHT22;2730;51.512;7.504;2023-08-31T16:03:08;16.00;99.90
5415;DHT22;2730;51.512;7.504;2023-08-31T16:05:36;16.10;99.90
5415;DHT22;2730;51.512;7.504;2023-08-31T16:08:04;16.20;99.90
5415;DHT22;2730;51.512;7.504;2023-08-31T16:10:32;16.20;99.90
5415;DHT22;2730;51.512;7.504;2023-08-31T16:12:59;16.20;99.90